sensor_id;sensor_type;location;lat;lon;timestamp;P1;durP1;ratioP1;P2;durP2;ratioP2
26062;SDS011;13837;48.562;12.108;2023-04-25T00:00:28;6.78;;;6.22;;
26062;SDS011;13837;48.562;12.108;2023-04-25T00:02:54;7.07;;;6.25;;
26062;SDS011;13837;48.562;12.108;2023-04-25T00:05:25;6.70;;;6.18;;
26062;SDS011;13837;48.562;12.108;2023-04-25T00:07:51;7.30;;;6.55;;
26062;SDS011;13837;48.562;12.108;2023-04-25T00:10:17;6.95;;;6.40;;
26062;SDS011;13837;48.562;12.108;2023-04-25T00:12:43;7.18;;;6.57;;
26062;SDS011;13837;48.562;12.108;2023-04-25T00:15:09;6.82;;;6.22;;
26062;SDS011;13837;48.562;12.108;2023-04-25T00:17:35;6.50;;;6.00;;
26062;SDS011;13837;48.562;12.108;2023-04-25T00:20:03;6.97;;;6.47;;
26062;SDS011;13837;48.562;12.108;2023-04-25T00:22:30;7.13;;;6.53;;
26062;SDS011;13837;48.562;12.108;2023-04-25T00:24:56;7.50;;;6.90;;
26062;SDS011;13837;48.562;12.108;2023-04-25T00:27:25;8.00;;;7.37;;
26062;SDS011;13837;48.562;12.108;2023-04-25T00:29:51;10.30;;;7.45;;
26062;SDS011;13837;48.562;12.108;2023-04-25T00:32:17;7.53;;;6.82;;
26062;SDS011;13837;48.562;12.108;2023-04-25T00:34:43;8.18;;;7.47;;
26062;SDS011;13837;48.562;12.108;2023-04-25T00:37:09;8.52;;;7.75;;
26062;SDS011;13837;48.562;12.108;2023-04-25T00:39:35;8.40;;;7.70;;
26062;SDS011;13837;48.562;12.108;2023-04-25T00:42:02;9.27;;;8.38;;
26062;SDS011;13837;48.562;12.108;2023-04-25T00:44:29;9.15;;;8.15;;
26062;SDS011;13837;48.562;12.108;2023-04-25T00:46:55;9.10;;;8.20;;
26062;SDS011;13837;48.562;12.108;2023-04-25T00:49:21;9.88;;;8.00;;
26062;SDS011;13837;48.562;12.108;2023-04-25T00:51:47;7.95;;;7.35;;
26062;SDS011;13837;48.562;12.108;2023-04-25T00:54:13;8.40;;;7.70;;
26062;SDS011;13837;48.562;12.108;2023-04-25T00:56:40;9.43;;;7.93;;
26062;SDS011;13837;48.562;12.108;2023-04-25T00:59:07;8.88;;;7.47;;
26062;SDS011;13837;48.562;12.108;2023-04-25T01:01:35;10.15;;;7.70;;
26062;SDS011;13837;48.562;12.108;2023-04-25T01:04:01;8.60;;;7.80;;
26062;SDS011;13837;48.562;12.108;2023-04-25T01:06:28;8.50;;;7.70;;
26062;SDS011;13837;48.562;12.108;2023-04-25T01:08:54;8.00;;;7.30;;
26062;SDS011;13837;48.562;12.108;2023-04-25T01:11:20;7.65;;;7.03;;
26062;SDS011;13837;48.562;12.108;2023-04-25T01:13:46;8.07;;;7.38;;
26062;SDS011;13837;48.562;12.108;2023-04-25T01:16:12;8.18;;;7.35;;
26062;SDS011;13837;48.562;12.108;2023-04-25T01:18:38;7.90;;;7.30;;
26062;SDS011;13837;48.562;12.108;2023-04-25T01:21:09;7.28;;;6.57;;
26062;SDS011;13837;48.562;12.108;2023-04-25T01:23:37;9.13;;;7.65;;
26062;SDS011;13837;48.562;12.108;2023-04-25T01:26:04;7.88;;;7.03;;
26062;SDS011;13837;48.562;12.108;2023-04-25T01:28:30;8.50;;;7.60;;
26062;SDS011;13837;48.562;12.108;2023-04-25T01:30:57;7.93;;;7.22;;
26062;SDS011;13837;48.562;12.108;2023-04-25T01:33:23;7.07;;;6.50;;
26062;SDS011;13837;48.562;12.108;2023-04-25T01:35:50;7.20;;;6.60;;
26062;SDS011;13837;48.562;12.108;2023-04-25T01:38:18;7.38;;;6.70;;
26062;SDS011;13837;48.562;12.108;2023-04-25T01:40:45;7.40;;;6.80;;
26062;SDS011;13837;48.562;12.108;2023-04-25T01:43:14;8.48;;;7.68;;
26062;SDS011;13837;48.562;12.108;2023-04-25T01:45:41;7.35;;;6.65;;
26062;SDS011;13837;48.562;12.108;2023-04-25T01:48:09;7.50;;;6.90;;
26062;SDS011;13837;48.562;12.108;2023-04-25T01:50:35;8.95;;;8.05;;
26062;SDS011;13837;48.562;12.108;2023-04-25T01:53:01;7.32;;;6.63;;
26062;SDS011;13837;48.562;12.108;2023-04-25T01:55:28;8.27;;;7.53;;
26062;SDS011;13837;48.562;12.108;2023-04-25T01:58:02;7.53;;;6.53;;
26062;SDS011;13837;48.562;12.108;2023-04-25T02:03:33;8.63;;;6.65;;
26062;SDS011;13837;48.562;12.108;2023-04-25T02:06:02;7.25;;;6.55;;
26062;SDS011;13837;48.562;12.108;2023-04-25T02:08:30;7.45;;;6.78;;
26062;SDS011;13837;48.562;12.108;2023-04-25T02:10:57;7.15;;;6.53;;
26062;SDS011;13837;48.562;12.108;2023-04-25T02:13:29;7.38;;;6.50;;
26062;SDS011;13837;48.562;12.108;2023-04-25T02:15:55;9.75;;;6.82;;
26062;SDS011;13837;48.562;12.108;2023-04-25T02:18:21;8.55;;;7.05;;
26062;SDS011;13837;48.562;12.108;2023-04-25T02:20:47;7.63;;;6.85;;
26062;SDS011;13837;48.562;12.108;2023-04-25T02:23:13;8.23;;;7.53;;
26062;SDS011;13837;48.562;12.108;2023-04-25T02:25:40;8.57;;;6.63;;
26062;SDS011;13837;48.562;12.108;2023-04-25T02:28:07;7.82;;;7.13;;
26062;SDS011;13837;48.562;12.108;2023-04-25T02:30:34;7.25;;;6.55;;
26062;SDS011;13837;48.562;12.108;2023-04-25T02:33:03;8.80;;;6.57;;
26062;SDS011;13837;48.562;12.108;2023-04-25T02:35:29;7.32;;;6.63;;
26062;SDS011;13837;48.562;12.108;2023-04-25T02:37:56;7.05;;;6.22;;
26062;SDS011;13837;48.562;12.108;2023-04-25T02:40:22;7.25;;;6.38;;
26062;SDS011;13837;48.562;12.108;2023-04-25T02:42:48;7.40;;;6.70;;
26062;SDS011;13837;48.562;12.108;2023-04-25T02:45:14;7.32;;;6.63;;
26062;SDS011;13837;48.562;12.108;2023-04-25T02:47:40;7.75;;;6.38;;
26062;SDS011;13837;48.562;12.108;2023-04-25T02:50:06;7.60;;;6.38;;
26062;SDS011;13837;48.562;12.108;2023-04-25T02:52:33;8.35;;;7.55;;
26062;SDS011;13837;48.562;12.108;2023-04-25T02:55:11;7.28;;;6.45;;
26062;SDS011;13837;48.562;12.108;2023-04-25T02:57:38;6.85;;;6.25;;
26062;SDS011;13837;48.562;12.108;2023-04-25T03:00:04;8.13;;;6.95;;
26062;SDS011;13837;48.562;12.108;2023-04-25T03:02:30;8.20;;;6.78;;
26062;SDS011;13837;48.562;12.108;2023-04-25T03:04:57;9.68;;;7.00;;
26062;SDS011;13837;48.562;12.108;2023-04-25T03:07:23;10.88;;;6.82;;
26062;SDS011;13837;48.562;12.108;2023-04-25T03:09:49;7.22;;;6.55;;
26062;SDS011;13837;48.562;12.108;2023-04-25T03:12:15;8.63;;;7.43;;
26062;SDS011;13837;48.562;12.108;2023-04-25T03:14:42;7.00;;;6.40;;
26062;SDS011;13837;48.562;12.108;2023-04-25T03:17:08;7.30;;;6.65;;
26062;SDS011;13837;48.562;12.108;2023-04-25T03:19:34;11.23;;;6.88;;
26062;SDS011;13837;48.562;12.108;2023-04-25T03:22:00;8.35;;;7.43;;
26062;SDS011;13837;48.562;12.108;2023-04-25T03:24:27;8.25;;;6.90;;
26062;SDS011;13837;48.562;12.108;2023-04-25T03:26:54;10.90;;;7.72;;
26062;SDS011;13837;48.562;12.108;2023-04-25T03:29:20;7.38;;;6.72;;
26062;SDS011;13837;48.562;12.108;2023-04-25T03:31:50;7.90;;;7.20;;
26062;SDS011;13837;48.562;12.108;2023-04-25T03:34:16;8.23;;;7.50;;
26062;SDS011;13837;48.562;12.108;2023-04-25T03:36:42;9.15;;;7.50;;
26062;SDS011;13837;48.562;12.108;2023-04-25T03:39:09;7.90;;;7.20;;
26062;SDS011;13837;48.562;12.108;2023-04-25T03:41:36;8.40;;;7.40;;
26062;SDS011;13837;48.562;12.108;2023-04-25T03:44:08;8.80;;;7.88;;
26062;SDS011;13837;48.562;12.108;2023-04-25T03:46:34;10.27;;;8.45;;
26062;SDS011;13837;48.562;12.108;2023-04-25T03:49:01;11.10;;;8.93;;
26062;SDS011;13837;48.562;12.108;2023-04-25T03:51:43;8.25;;;7.43;;
26062;SDS011;13837;48.562;12.108;2023-04-25T03:54:09;9.27;;;7.68;;
26062;SDS011;13837;48.562;12.108;2023-04-25T03:56:36;8.65;;;7.90;;
26062;SDS011;13837;48.562;12.108;2023-04-25T03:59:13;8.45;;;7.53;;
26062;SDS011;13837;48.562;12.108;2023-04-25T04:01:39;8.70;;;7.20;;
26062;SDS011;13837;48.562;12.108;2023-04-25T04:04:05;9.82;;;7.65;;
26062;SDS011;13837;48.562;12.108;2023-04-25T04:06:33;8.25;;;7.55;;
26062;SDS011;13837;48.562;12.108;2023-04-25T04:09:08;8.65;;;7.68;;
26062;SDS011;13837;48.562;12.108;2023-04-25T04:11:38;8.27;;;7.47;;
26062;SDS011;13837;48.562;12.108;2023-04-25T04:14:05;10.18;;;7.60;;
26062;SDS011;13837;48.562;12.108;2023-04-25T04:16:32;7.82;;;7.00;;
26062;SDS011;13837;48.562;12.108;2023-04-25T04:18:58;9.75;;;7.60;;
26062;SDS011;13837;48.562;12.108;2023-04-25T04:21:24;8.73;;;7.57;;
26062;SDS011;13837;48.562;12.108;2023-04-25T04:23:51;8.70;;;7.65;;
26062;SDS011;13837;48.562;12.108;2023-04-25T04:26:20;8.07;;;7.30;;
26062;SDS011;13837;48.562;12.108;2023-04-25T04:29:22;8.90;;;8.07;;
26062;SDS011;13837;48.562;12.108;2023-04-25T04:32:01;9.93;;;8.73;;
26062;SDS011;13837;48.562;12.108;2023-04-25T04:34:28;8.35;;;7.55;;
26062;SDS011;13837;48.562;12.108;2023-04-25T04:36:54;9.35;;;8.32;;
26062;SDS011;13837;48.562;12.108;2023-04-25T04:39:20;9.07;;;8.18;;
26062;SDS011;13837;48.562;12.108;2023-04-25T04:41:58;10.00;;;8.82;;
26062;SDS011;13837;48.562;12.108;2023-04-25T04:44:52;9.80;;;7.90;;
26062;SDS011;13837;48.562;12.108;2023-04-25T04:47:40;9.77;;;8.45;;
26062;SDS011;13837;48.562;12.108;2023-04-25T04:50:25;9.27;;;8.18;;
26062;SDS011;13837;48.562;12.108;2023-04-25T04:53:10;8.70;;;7.78;;
26062;SDS011;13837;48.562;12.108;2023-04-25T04:55:47;9.68;;;8.40;;
26062;SDS011;13837;48.562;12.108;2023-04-25T04:58:43;11.13;;;8.77;;
26062;SDS011;13837;48.562;12.108;2023-04-25T05:01:28;9.52;;;8.73;;
26062;SDS011;13837;48.562;12.108;2023-04-25T05:04:17;10.32;;;9.02;;
26062;SDS011;13837;48.562;12.108;2023-04-25T05:07:04;9.45;;;8.57;;
26062;SDS011;13837;48.562;12.108;2023-04-25T05:09:30;9.60;;;8.80;;
26062;SDS011;13837;48.562;12.108;2023-04-25T05:12:05;9.63;;;8.13;;
26062;SDS011;13837;48.562;12.108;2023-04-25T05:14:52;9.70;;;8.77;;
26062;SDS011;13837;48.562;12.108;2023-04-25T05:17:36;9.55;;;8.65;;
26062;SDS011;13837;48.562;12.108;2023-04-25T05:20:22;11.23;;;9.63;;
26062;SDS011;13837;48.562;12.108;2023-04-25T05:22:48;10.45;;;9.40;;
26062;SDS011;13837;48.562;12.108;2023-04-25T05:25:22;10.82;;;8.60;;
26062;SDS011;13837;48.562;12.108;2023-04-25T05:27:56;9.48;;;8.57;;
26062;SDS011;13837;48.562;12.108;2023-04-25T05:30:41;10.60;;;8.77;;
26062;SDS011;13837;48.562;12.108;2023-04-25T05:33:16;9.65;;;8.73;;
26062;SDS011;13837;48.562;12.108;2023-04-25T05:35:44;9.15;;;8.10;;
26062;SDS011;13837;48.562;12.108;2023-04-25T05:38:10;8.90;;;7.53;;
26062;SDS011;13837;48.562;12.108;2023-04-25T05:40:56;12.23;;;9.13;;
26062;SDS011;13837;48.562;12.108;2023-04-25T05:43:51;9.68;;;8.77;;
26062;SDS011;13837;48.562;12.108;2023-04-25T05:46:24;9.88;;;7.70;;
26062;SDS011;13837;48.562;12.108;2023-04-25T05:49:23;8.93;;;8.02;;
26062;SDS011;13837;48.562;12.108;2023-04-25T05:51:57;9.02;;;8.13;;
26062;SDS011;13837;48.562;12.108;2023-04-25T05:54:37;8.45;;;7.63;;
26062;SDS011;13837;48.562;12.108;2023-04-25T05:57:04;8.32;;;7.63;;
26062;SDS011;13837;48.562;12.108;2023-04-25T05:59:31;8.25;;;7.55;;
26062;SDS011;13837;48.562;12.108;2023-04-25T06:01:57;11.13;;;9.05;;
26062;SDS011;13837;48.562;12.108;2023-04-25T06:04:23;7.68;;;6.93;;
26062;SDS011;13837;48.562;12.108;2023-04-25T06:06:49;10.50;;;6.97;;
26062;SDS011;13837;48.562;12.108;2023-04-25T06:09:15;6.68;;;6.07;;
26062;SDS011;13837;48.562;12.108;2023-04-25T06:11:41;9.40;;;6.95;;
26062;SDS011;13837;48.562;12.108;2023-04-25T06:14:08;8.00;;;7.20;;
26062;SDS011;13837;48.562;12.108;2023-04-25T06:16:39;6.57;;;6.10;;
26062;SDS011;13837;48.562;12.108;2023-04-25T06:19:05;7.13;;;6.53;;
26062;SDS011;13837;48.562;12.108;2023-04-25T06:21:32;7.65;;;6.93;;
26062;SDS011;13837;48.562;12.108;2023-04-25T06:23:58;6.70;;;6.10;;
26062;SDS011;13837;48.562;12.108;2023-04-25T06:26:24;6.95;;;6.25;;
26062;SDS011;13837;48.562;12.108;2023-04-25T06:28:51;9.45;;;6.20;;
26062;SDS011;13837;48.562;12.108;2023-04-25T06:31:17;6.72;;;6.18;;
26062;SDS011;13837;48.562;12.108;2023-04-25T06:33:44;7.35;;;5.97;;
26062;SDS011;13837;48.562;12.108;2023-04-25T06:36:10;6.03;;;5.53;;
26062;SDS011;13837;48.562;12.108;2023-04-25T06:38:38;6.68;;;5.80;;
26062;SDS011;13837;48.562;12.108;2023-04-25T06:41:04;6.28;;;5.63;;
26062;SDS011;13837;48.562;12.108;2023-04-25T06:46:23;5.82;;;5.28;;
26062;SDS011;13837;48.562;12.108;2023-04-25T06:48:50;8.75;;;5.55;;
26062;SDS011;13837;48.562;12.108;2023-04-25T06:51:17;5.82;;;4.35;;
26062;SDS011;13837;48.562;12.108;2023-04-25T06:53:44;4.30;;;3.63;;
26062;SDS011;13837;48.562;12.108;2023-04-25T06:56:19;4.00;;;3.70;;
26062;SDS011;13837;48.562;12.108;2023-04-25T06:58:54;5.63;;;3.90;;
26062;SDS011;13837;48.562;12.108;2023-04-25T07:01:26;3.60;;;3.25;;
26062;SDS011;13837;48.562;12.108;2023-04-25T07:03:52;3.55;;;2.55;;
26062;SDS011;13837;48.562;12.108;2023-04-25T07:06:23;4.57;;;2.90;;
26062;SDS011;13837;48.562;12.108;2023-04-25T07:08:51;4.85;;;3.03;;
26062;SDS011;13837;48.562;12.108;2023-04-25T07:11:17;3.33;;;2.97;;
26062;SDS011;13837;48.562;12.108;2023-04-25T07:13:43;5.25;;;2.80;;
26062;SDS011;13837;48.562;12.108;2023-04-25T07:16:09;3.30;;;3.00;;
26062;SDS011;13837;48.562;12.108;2023-04-25T07:18:35;2.50;;;2.30;;
26062;SDS011;13837;48.562;12.108;2023-04-25T07:21:02;2.92;;;2.72;;
26062;SDS011;13837;48.562;12.108;2023-04-25T07:23:30;4.68;;;3.22;;
26062;SDS011;13837;48.562;12.108;2023-04-25T07:25:59;2.50;;;2.30;;
26062;SDS011;13837;48.562;12.108;2023-04-25T07:28:26;3.00;;;2.53;;
26062;SDS011;13837;48.562;12.108;2023-04-25T07:30:52;3.33;;;2.60;;
26062;SDS011;13837;48.562;12.108;2023-04-25T07:33:18;2.90;;;2.50;;
26062;SDS011;13837;48.562;12.108;2023-04-25T07:35:45;2.30;;;2.10;;
26062;SDS011;13837;48.562;12.108;2023-04-25T07:38:12;4.07;;;2.53;;
26062;SDS011;13837;48.562;12.108;2023-04-25T07:40:38;2.60;;;2.40;;
26062;SDS011;13837;48.562;12.108;2023-04-25T07:43:07;3.40;;;3.10;;
26062;SDS011;13837;48.562;12.108;2023-04-25T07:45:40;5.45;;;2.95;;
26062;SDS011;13837;48.562;12.108;2023-04-25T07:48:07;3.38;;;3.08;;
26062;SDS011;13837;48.562;12.108;2023-04-25T07:50:36;10.27;;;3.65;;
26062;SDS011;13837;48.562;12.108;2023-04-25T07:53:02;3.85;;;3.55;;
26062;SDS011;13837;48.562;12.108;2023-04-25T07:55:39;4.25;;;3.65;;
26062;SDS011;13837;48.562;12.108;2023-04-25T07:58:10;4.57;;;3.78;;
26062;SDS011;13837;48.562;12.108;2023-04-25T08:00:39;6.10;;;3.78;;
26062;SDS011;13837;48.562;12.108;2023-04-25T08:03:27;6.55;;;3.90;;
26062;SDS011;13837;48.562;12.108;2023-04-25T08:05:53;6.97;;;3.80;;
26062;SDS011;13837;48.562;12.108;2023-04-25T08:08:22;4.50;;;3.55;;
26062;SDS011;13837;48.562;12.108;2023-04-25T08:10:48;4.85;;;4.10;;
26062;SDS011;13837;48.562;12.108;2023-04-25T08:13:23;6.85;;;3.92;;
26062;SDS011;13837;48.562;12.108;2023-04-25T08:15:49;5.20;;;4.13;;
26062;SDS011;13837;48.562;12.108;2023-04-25T08:18:16;6.80;;;4.50;;
26062;SDS011;13837;48.562;12.108;2023-04-25T08:20:43;5.07;;;3.53;;
26062;SDS011;13837;48.562;12.108;2023-04-25T08:23:11;4.70;;;4.20;;
26062;SDS011;13837;48.562;12.108;2023-04-25T08:25:51;5.82;;;3.55;;
26062;SDS011;13837;48.562;12.108;2023-04-25T08:28:20;4.82;;;3.85;;
26062;SDS011;13837;48.562;12.108;2023-04-25T08:30:47;4.40;;;3.50;;
26062;SDS011;13837;48.562;12.108;2023-04-25T08:33:14;5.88;;;3.35;;
26062;SDS011;13837;48.562;12.108;2023-04-25T08:36:15;7.07;;;4.57;;
26062;SDS011;13837;48.562;12.108;2023-04-25T08:38:42;5.00;;;3.92;;
26062;SDS011;13837;48.562;12.108;2023-04-25T08:41:10;5.38;;;4.00;;
26062;SDS011;13837;48.562;12.108;2023-04-25T08:43:37;4.32;;;2.85;;
26062;SDS011;13837;48.562;12.108;2023-04-25T08:46:03;6.35;;;3.83;;
26062;SDS011;13837;48.562;12.108;2023-04-25T08:48:41;4.63;;;3.33;;
26062;SDS011;13837;48.562;12.108;2023-04-25T08:51:08;4.65;;;3.28;;
26062;SDS011;13837;48.562;12.108;2023-04-25T08:53:37;5.18;;;3.45;;
26062;SDS011;13837;48.562;12.108;2023-04-25T08:56:05;4.00;;;3.67;;
26062;SDS011;13837;48.562;12.108;2023-04-25T09:01:00;3.92;;;3.33;;
26062;SDS011;13837;48.562;12.108;2023-04-25T09:03:29;3.42;;;3.13;;
26062;SDS011;13837;48.562;12.108;2023-04-25T09:05:56;6.75;;;3.42;;
26062;SDS011;13837;48.562;12.108;2023-04-25T09:08:22;4.55;;;3.95;;
26062;SDS011;13837;48.562;12.108;2023-04-25T09:10:48;5.95;;;3.33;;
26062;SDS011;13837;48.562;12.108;2023-04-25T09:13:14;6.93;;;3.33;;
26062;SDS011;13837;48.562;12.108;2023-04-25T09:16:01;4.90;;;3.22;;
26062;SDS011;13837;48.562;12.108;2023-04-25T09:18:53;3.80;;;3.38;;
26062;SDS011;13837;48.562;12.108;2023-04-25T09:21:22;4.32;;;3.35;;
26062;SDS011;13837;48.562;12.108;2023-04-25T09:23:55;5.13;;;3.40;;
26062;SDS011;13837;48.562;12.108;2023-04-25T09:26:24;3.83;;;3.35;;
26062;SDS011;13837;48.562;12.108;2023-04-25T09:29:04;3.60;;;3.30;;
26062;SDS011;13837;48.562;12.108;2023-04-25T09:31:32;1.70;;;1.60;;
26062;SDS011;13837;48.562;12.108;2023-04-25T09:34:01;1.55;;;1.45;;
26062;SDS011;13837;48.562;12.108;2023-04-25T09:36:29;1.73;;;1.40;;
26062;SDS011;13837;48.562;12.108;2023-04-25T09:39:14;4.90;;;3.03;;
26062;SDS011;13837;48.562;12.108;2023-04-25T09:41:43;4.97;;;2.25;;
26062;SDS011;13837;48.562;12.108;2023-04-25T09:44:12;1.95;;;1.65;;
26062;SDS011;13837;48.562;12.108;2023-04-25T09:46:40;2.05;;;1.85;;
26062;SDS011;13837;48.562;12.108;2023-04-25T09:49:14;1.35;;;1.35;;
26062;SDS011;13837;48.562;12.108;2023-04-25T09:51:56;1.73;;;1.63;;
26062;SDS011;13837;48.562;12.108;2023-04-25T09:54:26;2.92;;;2.72;;
26062;SDS011;13837;48.562;12.108;2023-04-25T09:57:25;3.58;;;2.80;;
26062;SDS011;13837;48.562;12.108;2023-04-25T09:59:54;3.05;;;2.75;;
26062;SDS011;13837;48.562;12.108;2023-04-25T10:02:23;3.63;;;3.25;;
26062;SDS011;13837;48.562;12.108;2023-04-25T10:04:53;4.43;;;3.20;;
26062;SDS011;13837;48.562;12.108;2023-04-25T10:07:25;4.38;;;3.38;;
26062;SDS011;13837;48.562;12.108;2023-04-25T10:12:20;3.45;;;3.15;;
26062;SDS011;13837;48.562;12.108;2023-04-25T10:14:46;3.80;;;3.40;;
26062;SDS011;13837;48.562;12.108;2023-04-25T10:17:13;6.38;;;3.97;;
26062;SDS011;13837;48.562;12.108;2023-04-25T10:19:40;4.25;;;3.85;;
26062;SDS011;13837;48.562;12.108;2023-04-25T10:24:32;5.93;;;3.90;;
26062;SDS011;13837;48.562;12.108;2023-04-25T10:27:00;5.47;;;3.28;;
26062;SDS011;13837;48.562;12.108;2023-04-25T10:29:27;4.95;;;3.40;;
26062;SDS011;13837;48.562;12.108;2023-04-25T10:31:55;3.10;;;2.90;;
26062;SDS011;13837;48.562;12.108;2023-04-25T10:34:44;3.13;;;2.90;;
26062;SDS011;13837;48.562;12.108;2023-04-25T10:37:12;4.97;;;3.60;;
26062;SDS011;13837;48.562;12.108;2023-04-25T10:39:39;9.07;;;3.83;;
26062;SDS011;13837;48.562;12.108;2023-04-25T10:42:06;4.80;;;3.55;;
26062;SDS011;13837;48.562;12.108;2023-04-25T10:44:36;3.40;;;3.10;;
26062;SDS011;13837;48.562;12.108;2023-04-25T10:47:03;3.55;;;3.25;;
26062;SDS011;13837;48.562;12.108;2023-04-25T10:49:32;4.40;;;3.20;;
26062;SDS011;13837;48.562;12.108;2023-04-25T10:54:48;2.85;;;2.65;;
26062;SDS011;13837;48.562;12.108;2023-04-25T10:57:28;5.38;;;2.97;;
26062;SDS011;13837;48.562;12.108;2023-04-25T10:59:58;2.72;;;2.53;;
26062;SDS011;13837;48.562;12.108;2023-04-25T11:02:26;2.85;;;2.65;;
26062;SDS011;13837;48.562;12.108;2023-04-25T11:04:53;2.93;;;2.80;;
26062;SDS011;13837;48.562;12.108;2023-04-25T11:09:45;5.00;;;2.42;;
26062;SDS011;13837;48.562;12.108;2023-04-25T11:12:11;1.90;;;1.80;;
26062;SDS011;13837;48.562;12.108;2023-04-25T11:14:38;1.90;;;1.80;;
26062;SDS011;13837;48.562;12.108;2023-04-25T11:17:04;1.90;;;1.70;;
26062;SDS011;13837;48.562;12.108;2023-04-25T11:19:31;1.92;;;1.83;;
26062;SDS011;13837;48.562;12.108;2023-04-25T11:22:01;1.70;;;1.60;;
26062;SDS011;13837;48.562;12.108;2023-04-25T11:24:31;2.85;;;1.27;;
26062;SDS011;13837;48.562;12.108;2023-04-25T11:27:02;1.50;;;1.50;;
26062;SDS011;13837;48.562;12.108;2023-04-25T11:29:29;1.58;;;1.48;;
26062;SDS011;13837;48.562;12.108;2023-04-25T11:31:55;1.80;;;1.70;;
26062;SDS011;13837;48.562;12.108;2023-04-25T11:34:23;1.88;;;1.75;;
26062;SDS011;13837;48.562;12.108;2023-04-25T11:36:50;2.38;;;2.28;;
26062;SDS011;13837;48.562;12.108;2023-04-25T11:39:17;2.70;;;2.50;;
26062;SDS011;13837;48.562;12.108;2023-04-25T11:41:44;3.13;;;2.90;;
26062;SDS011;13837;48.562;12.108;2023-04-25T11:44:10;3.03;;;2.83;;
26062;SDS011;13837;48.562;12.108;2023-04-25T11:46:36;3.47;;;3.17;;
26062;SDS011;13837;48.562;12.108;2023-04-25T11:49:02;3.97;;;3.67;;
26062;SDS011;13837;48.562;12.108;2023-04-25T11:51:30;3.30;;;3.10;;
26062;SDS011;13837;48.562;12.108;2023-04-25T11:53:56;3.78;;;3.33;;
26062;SDS011;13837;48.562;12.108;2023-04-25T11:56:23;3.80;;;3.50;;
26062;SDS011;13837;48.562;12.108;2023-04-25T11:59:00;3.47;;;3.17;;
26062;SDS011;13837;48.562;12.108;2023-04-25T12:01:30;3.25;;;2.95;;
26062;SDS011;13837;48.562;12.108;2023-04-25T12:03:56;3.47;;;3.20;;
26062;SDS011;13837;48.562;12.108;2023-04-25T12:06:26;5.93;;;3.10;;
26062;SDS011;13837;48.562;12.108;2023-04-25T12:09:02;3.10;;;2.90;;
26062;SDS011;13837;48.562;12.108;2023-04-25T12:11:30;3.22;;;2.65;;
26062;SDS011;13837;48.562;12.108;2023-04-25T12:14:01;2.70;;;2.17;;
26062;SDS011;13837;48.562;12.108;2023-04-25T12:16:27;3.15;;;2.50;;
26062;SDS011;13837;48.562;12.108;2023-04-25T12:18:54;3.33;;;3.03;;
26062;SDS011;13837;48.562;12.108;2023-04-25T12:21:22;3.25;;;2.92;;
26062;SDS011;13837;48.562;12.108;2023-04-25T12:23:48;3.38;;;2.97;;
26062;SDS011;13837;48.562;12.108;2023-04-25T12:26:14;3.20;;;2.92;;
26062;SDS011;13837;48.562;12.108;2023-04-25T12:28:44;4.40;;;3.20;;
26062;SDS011;13837;48.562;12.108;2023-04-25T12:31:12;2.95;;;2.75;;
26062;SDS011;13837;48.562;12.108;2023-04-25T12:33:40;2.58;;;2.38;;
26062;SDS011;13837;48.562;12.108;2023-04-25T12:36:07;2.60;;;2.40;;
26062;SDS011;13837;48.562;12.108;2023-04-25T12:38:36;2.88;;;2.58;;
26062;SDS011;13837;48.562;12.108;2023-04-25T12:41:02;2.97;;;2.40;;
26062;SDS011;13837;48.562;12.108;2023-04-25T12:43:28;2.58;;;2.38;;
26062;SDS011;13837;48.562;12.108;2023-04-25T12:45:55;2.55;;;2.22;;
26062;SDS011;13837;48.562;12.108;2023-04-25T12:48:21;2.63;;;2.33;;
26062;SDS011;13837;48.562;12.108;2023-04-25T12:50:48;2.22;;;2.13;;
26062;SDS011;13837;48.562;12.108;2023-04-25T12:53:22;2.80;;;2.58;;
26062;SDS011;13837;48.562;12.108;2023-04-25T12:55:51;3.13;;;2.22;;
26062;SDS011;13837;48.562;12.108;2023-04-25T12:58:17;2.78;;;2.58;;
26062;SDS011;13837;48.562;12.108;2023-04-25T13:00:44;2.90;;;2.70;;
26062;SDS011;13837;48.562;12.108;2023-04-25T13:03:10;3.97;;;3.10;;
26062;SDS011;13837;48.562;12.108;2023-04-25T13:05:37;3.40;;;3.10;;
26062;SDS011;13837;48.562;12.108;2023-04-25T13:08:03;4.07;;;2.97;;
26062;SDS011;13837;48.562;12.108;2023-04-25T13:10:30;3.35;;;2.90;;
26062;SDS011;13837;48.562;12.108;2023-04-25T13:12:56;2.95;;;2.75;;
26062;SDS011;13837;48.562;12.108;2023-04-25T13:15:22;2.70;;;2.50;;
26062;SDS011;13837;48.562;12.108;2023-04-25T13:17:48;3.53;;;2.70;;
26062;SDS011;13837;48.562;12.108;2023-04-25T13:20:15;3.28;;;2.70;;
26062;SDS011;13837;48.562;12.108;2023-04-25T13:22:42;5.18;;;2.78;;
26062;SDS011;13837;48.562;12.108;2023-04-25T13:25:10;3.30;;;3.00;;
26062;SDS011;13837;48.562;12.108;2023-04-25T13:27:36;4.20;;;2.90;;
26062;SDS011;13837;48.562;12.108;2023-04-25T13:30:04;3.40;;;3.10;;
26062;SDS011;13837;48.562;12.108;2023-04-25T13:32:36;3.77;;;3.47;;
26062;SDS011;13837;48.562;12.108;2023-04-25T13:35:05;4.43;;;3.40;;
26062;SDS011;13837;48.562;12.108;2023-04-25T13:37:31;4.88;;;3.60;;
26062;SDS011;13837;48.562;12.108;2023-04-25T13:40:04;3.47;;;3.17;;
26062;SDS011;13837;48.562;12.108;2023-04-25T13:42:34;3.28;;;2.97;;
26062;SDS011;13837;48.562;12.108;2023-04-25T13:45:00;4.65;;;3.35;;
26062;SDS011;13837;48.562;12.108;2023-04-25T13:47:26;4.30;;;3.90;;
26062;SDS011;13837;48.562;12.108;2023-04-25T13:49:53;5.32;;;3.88;;
26062;SDS011;13837;48.562;12.108;2023-04-25T13:52:19;4.65;;;4.25;;
26062;SDS011;13837;48.562;12.108;2023-04-25T13:54:45;9.07;;;4.47;;
26062;SDS011;13837;48.562;12.108;2023-04-25T13:57:12;6.53;;;4.72;;
26062;SDS011;13837;48.562;12.108;2023-04-25T13:59:38;8.77;;;5.70;;
26062;SDS011;13837;48.562;12.108;2023-04-25T14:02:06;6.53;;;5.30;;
26062;SDS011;13837;48.562;12.108;2023-04-25T14:04:32;5.63;;;4.13;;
26062;SDS011;13837;48.562;12.108;2023-04-25T14:06:58;4.50;;;3.97;;
26062;SDS011;13837;48.562;12.108;2023-04-25T14:09:24;5.07;;;4.60;;
26062;SDS011;13837;48.562;12.108;2023-04-25T14:11:52;5.63;;;4.90;;
26062;SDS011;13837;48.562;12.108;2023-04-25T14:14:18;5.20;;;4.70;;
26062;SDS011;13837;48.562;12.108;2023-04-25T14:16:45;5.45;;;4.50;;
26062;SDS011;13837;48.562;12.108;2023-04-25T14:19:13;5.07;;;4.40;;
26062;SDS011;13837;48.562;12.108;2023-04-25T14:21:39;4.90;;;4.47;;
26062;SDS011;13837;48.562;12.108;2023-04-25T14:24:06;5.50;;;5.03;;
26062;SDS011;13837;48.562;12.108;2023-04-25T14:26:35;5.35;;;4.30;;
26062;SDS011;13837;48.562;12.108;2023-04-25T14:29:01;5.57;;;4.72;;
26062;SDS011;13837;48.562;12.108;2023-04-25T14:31:28;5.00;;;4.28;;
26062;SDS011;13837;48.562;12.108;2023-04-25T14:33:54;9.23;;;6.30;;
26062;SDS011;13837;48.562;12.108;2023-04-25T14:36:20;5.10;;;4.60;;
26062;SDS011;13837;48.562;12.108;2023-04-25T14:38:46;4.35;;;4.00;;
26062;SDS011;13837;48.562;12.108;2023-04-25T14:41:12;8.70;;;5.60;;
26062;SDS011;13837;48.562;12.108;2023-04-25T14:43:38;4.95;;;4.45;;
26062;SDS011;13837;48.562;12.108;2023-04-25T14:46:05;4.88;;;4.47;;
26062;SDS011;13837;48.562;12.108;2023-04-25T14:48:32;6.00;;;5.15;;
26062;SDS011;13837;48.562;12.108;2023-04-25T14:50:58;6.25;;;5.68;;
26062;SDS011;13837;48.562;12.108;2023-04-25T14:53:28;6.05;;;5.45;;
26062;SDS011;13837;48.562;12.108;2023-04-25T14:55:54;5.45;;;4.95;;
26062;SDS011;13837;48.562;12.108;2023-04-25T14:58:20;15.45;;;12.77;;
26062;SDS011;13837;48.562;12.108;2023-04-25T15:00:46;6.97;;;6.18;;
26062;SDS011;13837;48.562;12.108;2023-04-25T15:03:12;6.93;;;6.32;;